Huvudsida
METAR-TAF:

METAR-TAF

Flygplatser :

Bardufoss, Norge

Bardufoss flygplats

latitud: 69-04N, longitud: 018-32E, höjd: 7 m

Aktuellt väderrapport

Denna rapport gjordes för 36 minuter sedan, klockan 17:50 UTC
Vind 3 kt från nord
Temperatur 3°C
Fuktighet 65%
Tryck 1013 hPa
Sikt 10 km eller mer
Få moln på en höjd av 3000 ft
Brutna moln på en höjd av 4000 ft

METAR: ENDU 221750Z 36003KT 9999 FEW030 BKN040 03/M03 Q1013 RMK WIND 1100FT VRB02KT WIND 2200FT VRB03KT

Tid: 20:26 (18:26 UTC)

Väderprognos

Prognos gäller från 22 kl. 18 UTC till 23 kl. 18 UTC
Vind 5 kt varierande vindriktning
Sikt 10 km eller mer
Spridda moln på en höjd av 4000 ft

TAF: ENDU 2218/2318 VRB05KT 9999 SCT040

Aktuella väderrapporter och prognoser från 4000 flygplatser (METAR- och TAF-rapporter).

De tillgängliga stationerna syns som gula och röda prickar på kartan.

För musen över prickarna för att se namnen på stationerna.

Klicka sedan för att få väderrapporter och prognoser.

För att ändra kartan: Klicka på de gröna knapparna med ett svart kors på för att zooma in; den gröna knappen med ett streck på för att zooma ut; eller på de gröna pilarna för angränsande kartor.


METAR-TAF: